Auburn, IN

2:50 AM EDT on May 29, 2017 (GMT -0400)
Auburn

Weather History for KGWB - February, 2013

Change the Weather History Date:

Wednesday, February 27, 2013

  Actual Average (KFWA) Record (KFWA)
Temperature  
Mean Temperature 32 °F -  
Max Temperature 33 °F 39 °F 70 °F (1996)
Min Temperature 32 °F 23 °F -18 °F (1963)
Degree Days  
Heating Degree Days 32    
Moisture  
Dew Point 32 °F    
Average Humidity 95    
Maximum Humidity 100    
Minimum Humidity 93    
Precipitation  
Precipitation 0.12 in - - ()
Sea Level Pressure  
Sea Level Pressure 29.53 in    
Wind  
Wind Speed 4 mph (SW)    
Max Wind Speed 12 mph    
Max Gust Speed 18 mph    
Visibility 3 miles    
Events Rain , Snow    
Averages and records for this station are not official NWS values.
T = Trace of Precipitation, MM = Missing Value Source: NWS Daily Summary

Daily Weather History Graph

Daily Weather History Graph

Search for Another Location

Airport or City:

Trip Planner

Search our weather history database for the weather conditions in past years. The results will help you decide how hot, cold, wet, or windy it might be!

Date:

Astronomy

Feb. 27, 2013 Rise Set
Actual Time 7:17 AM EST 6:28 PM EST
Civil Twilight 6:49 AM EST 6:56 PM EST
Nautical Twilight 6:17 AM EST 7:28 PM EST
Astronomical Twilight 5:45 AM EST 8:00 PM EST
Moon 8:51 PM EST (2/27) 7:50 AM EST (2/27)
Length of Visible Light 12h 07m
Length of Day
11h 11m
Waning Gibbous, 96% of the Moon is Illuminated
Feb 27
Waning Gibbous
Mar 4
Last Quarter
Mar 11
New
Mar 19
First Quarter
Mar 27
Full

Hourly Weather History & Observations

Time (EST) Temp. Windchill Dew Point Humidity Pressure Visibility Wind Dir Wind Speed Gust Speed Precip Events Conditions
12:15 AM 33.8 °F - 32.0 °F 93% 29.43 in 4.0 mi Calm Calm - N/A Rain Light Rain
12:35 AM 33.8 °F - 32.0 °F 93% 29.44 in 4.0 mi Calm Calm - N/A Rain Light Rain
12:55 AM 32.0 °F - 32.0 °F 100% 29.44 in 2.0 mi Calm Calm - 0.01 in Snow Light Snow
1:15 AM 32.0 °F - 32.0 °F 100% 29.44 in 1.2 mi Calm Calm - N/A Snow Light Snow
1:35 AM 32.0 °F - 32.0 °F 100% 29.44 in 1.0 mi Calm Calm - 0.02 in Snow Light Snow
1:55 AM 32.0 °F - 32.0 °F 100% 29.45 in 1.5 mi Calm Calm - 0.03 in Snow Light Snow
2:15 AM 32.0 °F - 32.0 °F 100% 29.45 in 1.5 mi Calm Calm - 0.01 in Snow Light Snow
2:35 AM 32.0 °F - 32.0 °F 100% 29.45 in 1.2 mi Calm Calm - 0.02 in Snow Light Snow
2:55 AM 32.0 °F - 32.0 °F 100% 29.45 in 1.8 mi Calm Calm - 0.02 in Snow Light Snow
3:15 AM 32.0 °F 28.7 °F 32.0 °F 100% 29.45 in 1.8 mi SW 3.5 mph - 0.01 in Snow Light Snow
3:35 AM 32.0 °F 28.7 °F 32.0 °F 100% 29.45 in 2.0 mi SW 3.5 mph - 0.02 in Snow Light Snow
3:55 AM 32.0 °F 28.7 °F 32.0 °F 100% 29.45 in 2.0 mi SW 3.5 mph - 0.02 in Snow Light Snow
4:15 AM 32.0 °F 27.5 °F 32.0 °F 100% 29.45 in 2.0 mi SW 4.6 mph - 0.01 in Snow Light Snow
4:35 AM 32.0 °F 28.7 °F 32.0 °F 100% 29.45 in 2.5 mi SW 3.5 mph - 0.01 in Snow Light Snow
4:55 AM 32.0 °F 27.5 °F 32.0 °F 100% 29.46 in 2.5 mi SSW 4.6 mph - 0.02 in Snow Light Snow
5:15 AM 32.0 °F 28.7 °F 32.0 °F 100% 29.46 in 2.5 mi SSW 3.5 mph - N/A Snow Light Snow
5:35 AM 32.0 °F 28.7 °F 32.0 °F 100% 29.46 in 2.0 mi SSW 3.5 mph - N/A Snow Light Snow
5:55 AM 33.8 °F 29.6 °F 32.0 °F 93% 29.47 in 3.0 mi SSW 4.6 mph - N/A Snow Light Snow
6:15 AM 33.8 °F 29.6 °F 32.0 °F 93% 29.48 in 4.0 mi SW 4.6 mph - N/A Snow Light Snow
6:35 AM 33.8 °F 29.6 °F 32.0 °F 93% 29.48 in 2.5 mi SW 4.6 mph - N/A Snow Light Snow
6:55 AM 33.8 °F 28.6 °F 32.0 °F 93% 29.49 in 2.5 mi SW 5.8 mph - 0.01 in Snow Light Snow
7:15 AM 33.8 °F 27.0 °F 32.0 °F 93% 29.50 in 3.0 mi SW 8.1 mph - N/A Snow Light Snow
7:35 AM 33.8 °F 27.7 °F 32.0 °F 93% 29.50 in 2.0 mi SW 6.9 mph - N/A Snow Light Snow
8:35 AM 33.8 °F 27.7 °F 32.0 °F 93% 29.53 in 4.0 mi SW 6.9 mph - N/A   Overcast
8:55 AM 33.8 °F 27.0 °F 32.0 °F 93% 29.53 in 2.0 mi SW 8.1 mph - N/A Snow Light Snow
9:15 AM 33.8 °F 27.7 °F 32.0 °F 93% 29.53 in 2.5 mi SW 6.9 mph - N/A Snow Light Snow
9:35 AM 33.8 °F 27.7 °F 32.0 °F 93% 29.54 in 1.8 mi SW 6.9 mph - N/A Snow Light Snow
10:15 AM 33.8 °F 27.0 °F 32.0 °F 93% 29.55 in 1.0 mi SW 8.1 mph 16.1 mph N/A Snow Light Snow
10:35 AM 33.8 °F 27.7 °F 32.0 °F 93% 29.55 in 1.0 mi SW 6.9 mph - N/A Snow Light Snow
10:55 AM 33.8 °F 27.0 °F 32.0 °F 93% 29.55 in 1.0 mi SW 8.1 mph - N/A Snow Light Snow
11:15 AM 33.8 °F 27.0 °F 32.0 °F 93% 29.55 in 1.2 mi SW 8.1 mph - N/A Snow Light Snow
11:35 AM 33.8 °F 27.7 °F 32.0 °F 93% 29.55 in 1.2 mi SW 6.9 mph - N/A Snow Light Snow
11:55 AM 33.8 °F 27.0 °F 32.0 °F 93% 29.56 in 1.2 mi SW 8.1 mph - N/A Snow Light Snow
12:15 PM 33.8 °F 26.4 °F 32.0 °F 93% 29.56 in 1.5 mi SW 9.2 mph - N/A Snow Light Snow
12:35 PM 33.8 °F 26.4 °F 32.0 °F 93% 29.55 in 2.0 mi SW 9.2 mph - N/A Snow Light Snow
12:55 PM 33.8 °F 27.7 °F 32.0 °F 93% 29.55 in 2.0 mi SSW 6.9 mph - N/A Snow Light Snow
1:15 PM 33.8 °F 26.4 °F 32.0 °F 93% 29.55 in 5.0 mi SW 9.2 mph 17.3 mph N/A Snow Light Snow
1:55 PM 33.8 °F 26.4 °F 32.0 °F 93% 29.55 in 5.0 mi SW 9.2 mph - N/A   Light Drizzle
2:15 PM 33.8 °F 25.8 °F 32.0 °F 93% 29.55 in 10.0 mi SW 10.4 mph 16.1 mph N/A   Overcast
2:35 PM 33.8 °F 25.3 °F 32.0 °F 93% 29.55 in 10.0 mi SW 11.5 mph 17.3 mph N/A   Overcast
2:55 PM 33.8 °F 26.4 °F 32.0 °F 93% 29.55 in 7.0 mi SSW 9.2 mph 17.3 mph N/A   Overcast
3:15 PM 33.8 °F 27.0 °F 32.0 °F 93% 29.56 in 5.0 mi SW 8.1 mph 18.4 mph N/A Snow Light Snow
3:35 PM 33.8 °F 27.0 °F 32.0 °F 93% 29.56 in 3.0 mi SW 8.1 mph - N/A Snow Light Snow
3:55 PM 33.8 °F 25.8 °F 32.0 °F 93% 29.56 in 2.5 mi SW 10.4 mph 16.1 mph N/A Snow Light Snow
4:15 PM 33.8 °F 26.4 °F 32.0 °F 93% 29.56 in 1.0 mi SW 9.2 mph - N/A Snow Light Snow
4:35 PM 33.8 °F 28.6 °F 32.0 °F 93% 29.57 in 1.0 mi SW 5.8 mph - N/A Snow Light Snow
4:55 PM 33.8 °F 27.0 °F 32.0 °F 93% 29.57 in 1.2 mi SW 8.1 mph - N/A Snow Light Snow
5:15 PM 32.0 °F 24.8 °F 32.0 °F 100% 29.58 in 1.2 mi SW 8.1 mph - N/A Snow Light Snow
5:35 PM 32.0 °F 25.6 °F 32.0 °F 100% 29.58 in 1.0 mi SW 6.9 mph - N/A Snow Light Snow
5:55 PM 32.0 °F 24.8 °F 32.0 °F 100% 29.58 in 1.0 mi SW 8.1 mph - N/A Snow Light Snow
6:15 PM 32.0 °F 24.8 °F 32.0 °F 100% 29.59 in 1.0 mi SW 8.1 mph - 0.01 in Snow Light Snow
6:35 PM 32.0 °F 26.4 °F 32.0 °F 100% 29.59 in 2.0 mi SW 5.8 mph - 0.01 in Snow Light Snow
6:55 PM 32.0 °F 24.2 °F 32.0 °F 100% 29.59 in 2.5 mi WSW 9.2 mph - 0.01 in Snow Light Snow
7:15 PM 32.0 °F 25.6 °F 32.0 °F 100% 29.60 in 1.8 mi WSW 6.9 mph - N/A Snow Light Snow
7:35 PM 32.0 °F 24.2 °F 30.2 °F 93% 29.60 in 2.0 mi WSW 9.2 mph 18.4 mph N/A Snow Light Snow
7:55 PM 32.0 °F 26.4 °F 30.2 °F 93% 29.60 in 2.0 mi WSW 5.8 mph - N/A Snow Light Snow
8:15 PM 32.0 °F 25.6 °F 30.2 °F 93% 29.60 in 1.5 mi SW 6.9 mph - N/A Snow Light Snow
8:35 PM 32.0 °F 23.6 °F 30.2 °F 93% 29.60 in 1.5 mi SW 10.4 mph - N/A Snow Light Snow
8:55 PM 32.0 °F 26.4 °F 30.2 °F 93% 29.60 in 4.0 mi SW 5.8 mph - N/A Snow Light Snow
9:15 PM 32.0 °F 24.8 °F 30.2 °F 93% 29.60 in 5.0 mi SW 8.1 mph - N/A Snow Light Snow
9:35 PM 32.0 °F 26.4 °F 30.2 °F 93% 29.61 in 10.0 mi SW 5.8 mph - N/A Snow Light Snow
9:55 PM 32.0 °F 25.6 °F 30.2 °F 93% 29.60 in 7.0 mi SW 6.9 mph - N/A Snow Light Snow
10:15 PM 32.0 °F 25.6 °F 30.2 °F 93% 29.60 in 5.0 mi SW 6.9 mph - N/A Snow Light Snow
10:35 PM 32.0 °F 24.2 °F 30.2 °F 93% 29.60 in 3.0 mi SW 9.2 mph - N/A Snow Light Snow
10:55 PM 32.0 °F 26.4 °F 30.2 °F 93% 29.60 in 5.0 mi SW 5.8 mph - N/A Snow Light Snow
11:15 PM 32.0 °F 26.4 °F 30.2 °F 93% 29.59 in 5.0 mi SW 5.8 mph - N/A Snow Light Snow
11:35 PM 32.0 °F 27.5 °F 30.2 °F 93% 29.59 in 5.0 mi SW 4.6 mph - N/A Snow Light Snow
11:55 PM 32.0 °F 26.4 °F 30.2 °F 93% 29.59 in 5.0 mi SW 5.8 mph - N/A Snow Light Snow